Neyland, United Kingdom
Current Conditions -  °F | °C
As of 5:50 AM on Thursday 23 Oct 2014 (Local Time) from EGOP Reporting Station
Broken Clouds Broken Clouds  
Wind Chill: 14°   Ceiling: 2100
Heat Index: 14°   Visibility: 6mi
Dew Point: 12°   Wind: 22mph
Humidity: 88%   Direction: 230°SW
Pressure: 30.09"   Gusts: NA
Location:  51.71°N, 4.95°W
Report Text: EGOP 230450Z AUTO 23019KT 9000 // FEW014/// BKN021/// 14/12 Q1019
Loading
Personal Weather Stations






























Interactive Weather Map
Tropical Storm Tracking
New forecast layout! Learn more

10-Day Weather Forecast

Advertisements
Track Severe Weather on mobile